createdAt,value
2017-06-16T00:01:40.804Z,20.40
2017-06-16T00:04:07.992Z,20.40
2017-06-16T00:06:34.379Z,20.40
2017-06-16T00:09:00.772Z,20.40
2017-06-16T00:11:27.204Z,20.40
2017-06-16T00:13:54.360Z,20.30
2017-06-16T00:16:20.801Z,20.30
2017-06-16T00:18:47.187Z,20.30
2017-06-16T00:21:13.595Z,20.30
2017-06-16T00:23:40.012Z,20.30
2017-06-16T00:26:06.470Z,20.20
2017-06-16T00:28:32.839Z,20.20
2017-06-16T00:30:59.986Z,20.10
2017-06-16T00:33:26.388Z,20.10
2017-06-16T00:35:53.512Z,20.10
2017-06-16T00:38:20.685Z,20.10
2017-06-16T00:40:47.188Z,20.00
2017-06-16T00:43:13.605Z,20.10
2017-06-16T00:45:39.992Z,20.00
2017-06-16T00:48:06.432Z,20.10
2017-06-16T00:50:32.847Z,20.10
2017-06-16T00:52:59.970Z,20.00
2017-06-16T00:55:26.362Z,20.00
2017-06-16T00:57:52.778Z,19.90
2017-06-16T01:00:19.180Z,19.90
2017-06-16T01:02:45.603Z,19.80
2017-06-16T01:05:11.994Z,19.80
2017-06-16T01:07:38.415Z,19.80
2017-06-16T01:10:05.752Z,19.80
2017-06-16T01:12:32.165Z,19.80
2017-06-16T01:14:58.540Z,19.80
2017-06-16T01:17:25.059Z,19.80
2017-06-16T01:19:52.196Z,19.70
2017-06-16T01:22:19.327Z,19.70
2017-06-16T01:24:45.728Z,19.70
2017-06-16T01:27:12.080Z,19.70
2017-06-16T01:29:38.483Z,19.70
2017-06-16T01:32:04.932Z,19.70
2017-06-16T01:34:31.323Z,19.70
2017-06-16T01:36:57.766Z,19.70
2017-06-16T01:39:24.211Z,19.60
2017-06-16T01:41:50.616Z,19.60
2017-06-16T01:44:17.052Z,19.60
2017-06-16T01:46:43.540Z,19.50
2017-06-16T01:49:09.928Z,19.50
2017-06-16T01:51:36.348Z,19.50
2017-06-16T01:54:02.796Z,19.60
2017-06-16T01:56:29.123Z,19.60
2017-06-16T01:58:55.555Z,19.50
2017-06-16T02:01:22.699Z,19.50
2017-06-16T02:03:49.128Z,19.50
2017-06-16T02:06:16.268Z,19.50
2017-06-16T02:08:42.668Z,19.50
2017-06-16T02:11:09.076Z,19.50
2017-06-16T02:13:35.528Z,19.50
2017-06-16T02:16:01.929Z,19.50
2017-06-16T02:18:28.335Z,19.50
2017-06-16T02:20:54.755Z,19.40
2017-06-16T02:23:21.160Z,19.40
2017-06-16T02:25:47.560Z,19.40
2017-06-16T02:28:13.957Z,19.30
2017-06-16T02:30:40.383Z,19.30
2017-06-16T02:33:06.755Z,19.30
2017-06-16T02:35:33.171Z,19.30
2017-06-16T02:37:59.920Z,19.20
2017-06-16T02:40:26.321Z,19.20
2017-06-16T02:42:53.467Z,19.10
2017-06-16T02:45:19.901Z,19.10
2017-06-16T02:47:46.253Z,19.10
2017-06-16T02:50:12.659Z,19.10
2017-06-16T02:52:39.059Z,19.00
2017-06-16T02:55:05.421Z,19.00
2017-06-16T02:57:31.807Z,19.00
2017-06-16T02:59:58.997Z,19.00
2017-06-16T03:02:25.371Z,18.90
2017-06-16T03:04:52.540Z,18.90
2017-06-16T03:07:18.952Z,18.90
2017-06-16T03:09:45.390Z,18.90
2017-06-16T03:12:12.480Z,18.90
2017-06-16T03:14:38.908Z,18.80
2017-06-16T03:17:05.323Z,18.80
2017-06-16T03:19:31.703Z,18.80
2017-06-16T03:21:58.168Z,18.70
2017-06-16T03:24:30.659Z,18.70
2017-06-16T03:26:57.425Z,18.70
2017-06-16T03:29:23.820Z,18.70
2017-06-16T03:31:50.261Z,18.60
2017-06-16T03:34:16.708Z,18.60
2017-06-16T03:36:43.168Z,18.60
2017-06-16T03:39:09.544Z,18.60
2017-06-16T03:41:35.959Z,18.60
2017-06-16T03:44:02.424Z,18.60
2017-06-16T03:46:28.812Z,18.50
2017-06-16T03:48:55.284Z,18.50
2017-06-16T03:51:21.700Z,18.50
2017-06-16T03:53:48.908Z,18.50
2017-06-16T03:56:15.303Z,18.50
2017-06-16T03:58:42.015Z,18.50
2017-06-16T04:01:08.388Z,18.50
2017-06-16T04:03:34.812Z,18.50
2017-06-16T04:06:02.027Z,18.50
2017-06-16T04:08:28.401Z,18.50
2017-06-16T04:10:54.779Z,18.50
2017-06-16T04:13:21.224Z,18.50
2017-06-16T04:15:47.630Z,18.50
2017-06-16T04:18:14.324Z,18.40
2017-06-16T04:20:40.724Z,18.50
2017-06-16T04:23:07.117Z,18.40
2017-06-16T04:25:33.538Z,18.50
2017-06-16T04:27:59.964Z,18.50
2017-06-16T04:30:26.393Z,18.50
2017-06-16T04:32:52.788Z,18.60
2017-06-16T04:35:19.228Z,18.60
2017-06-16T04:37:45.587Z,18.60
2017-06-16T04:40:12.015Z,18.60
2017-06-16T04:42:38.448Z,18.60
2017-06-16T04:45:04.848Z,18.60
2017-06-16T04:47:31.252Z,18.70
2017-06-16T04:49:57.676Z,18.70
2017-06-16T04:52:24.847Z,18.70
2017-06-16T04:54:51.234Z,18.70
2017-06-16T04:57:17.659Z,18.70
2017-06-16T04:59:44.136Z,18.70
2017-06-16T05:02:11.399Z,18.70
2017-06-16T05:04:37.766Z,18.70
2017-06-16T05:07:04.120Z,18.80
2017-06-16T05:09:31.230Z,18.80
2017-06-16T05:11:57.611Z,18.80
2017-06-16T05:14:24.043Z,18.80
2017-06-16T05:16:50.517Z,18.80
2017-06-16T05:19:16.938Z,18.80
2017-06-16T05:21:43.384Z,18.80
2017-06-16T05:24:09.823Z,18.70
2017-06-16T05:26:36.191Z,18.70
2017-06-16T05:29:02.544Z,18.70
2017-06-16T05:31:28.960Z,18.70
2017-06-16T05:33:55.374Z,18.70
2017-06-16T05:36:21.809Z,18.70
2017-06-16T05:38:48.185Z,18.70
2017-06-16T05:41:14.677Z,18.70
2017-06-16T05:43:41.826Z,18.80
2017-06-16T05:46:08.280Z,18.80
2017-06-16T05:48:34.701Z,18.80
2017-06-16T05:51:01.100Z,18.80
2017-06-16T05:53:27.535Z,18.90
2017-06-16T05:55:53.957Z,18.90
2017-06-16T05:58:20.406Z,18.90
2017-06-16T06:00:47.568Z,19.00
2017-06-16T06:03:14.004Z,19.00
2017-06-16T06:05:40.447Z,19.10
2017-06-16T06:08:06.835Z,19.10
2017-06-16T06:10:33.279Z,19.20
2017-06-16T06:12:59.685Z,19.30
2017-06-16T06:15:26.067Z,19.50
2017-06-16T06:17:52.460Z,19.50
2017-06-16T06:20:18.857Z,19.60
2017-06-16T06:22:45.256Z,19.70
2017-06-16T06:25:11.668Z,19.70
2017-06-16T06:27:38.047Z,19.80
2017-06-16T06:30:04.896Z,19.80
2017-06-16T06:32:31.327Z,20.00
2017-06-16T06:34:57.792Z,20.10
2017-06-16T06:37:24.180Z,20.20
2017-06-16T06:39:50.612Z,20.30
2017-06-16T06:42:16.982Z,20.40
2017-06-16T06:44:43.375Z,20.40
2017-06-16T06:47:09.776Z,20.50
2017-06-16T06:49:36.872Z,20.60
2017-06-16T06:52:03.300Z,20.60
2017-06-16T06:54:29.711Z,20.60
2017-06-16T06:56:56.113Z,20.80
2017-06-16T06:59:22.559Z,20.80
2017-06-16T07:01:49.048Z,21.00
2017-06-16T07:04:15.415Z,21.10
2017-06-16T07:06:42.616Z,21.40
2017-06-16T07:09:09.756Z,21.50
2017-06-16T07:11:36.139Z,21.50
2017-06-16T07:14:02.588Z,21.40
2017-06-16T07:16:28.950Z,21.50
2017-06-16T07:18:55.287Z,21.50
2017-06-16T07:21:21.668Z,21.50
2017-06-16T07:23:48.067Z,21.50
2017-06-16T07:26:15.250Z,21.50
2017-06-16T07:28:41.617Z,21.50
2017-06-16T07:31:08.127Z,21.60
2017-06-16T07:33:34.523Z,21.70
2017-06-16T07:36:00.899Z,21.60
2017-06-16T07:38:27.287Z,21.30
2017-06-16T07:40:53.672Z,21.30
2017-06-16T07:43:20.075Z,21.30
2017-06-16T07:45:46.447Z,21.20
2017-06-16T07:48:13.563Z,21.50
2017-06-16T07:50:39.979Z,21.50
2017-06-16T07:53:07.148Z,21.70
2017-06-16T07:55:33.527Z,21.70
2017-06-16T07:57:59.955Z,21.80
2017-06-16T08:00:26.359Z,21.70
2017-06-16T08:02:52.756Z,21.60
2017-06-16T08:05:19.181Z,21.50
2017-06-16T08:07:46.364Z,21.40
2017-06-16T08:10:12.789Z,21.40
2017-06-16T08:12:39.199Z,21.50
2017-06-16T08:15:05.614Z,21.50
2017-06-16T08:17:31.976Z,21.60
2017-06-16T08:19:58.376Z,21.70
2017-06-16T08:22:24.770Z,21.70
2017-06-16T08:24:51.171Z,21.70
2017-06-16T08:27:17.656Z,21.70
2017-06-16T08:29:44.088Z,21.80
2017-06-16T08:32:10.477Z,22.00
2017-06-16T08:34:37.017Z,22.00
2017-06-16T08:37:03.422Z,22.20
2017-06-16T08:39:29.903Z,22.20
2017-06-16T08:41:56.350Z,22.30
2017-06-16T08:44:22.752Z,22.30
2017-06-16T08:46:49.172Z,22.40
2017-06-16T08:49:15.613Z,22.40
2017-06-16T08:51:42.088Z,22.40
2017-06-16T08:54:08.545Z,22.50
2017-06-16T08:56:34.947Z,22.70
2017-06-16T08:59:01.352Z,22.70
2017-06-16T09:01:27.763Z,22.60
2017-06-16T09:03:54.208Z,22.50
2017-06-16T09:06:20.641Z,22.50
2017-06-16T09:08:47.756Z,22.70
2017-06-16T09:11:14.047Z,22.60
2017-06-16T09:13:40.355Z,22.70
2017-06-16T09:16:06.650Z,23.10
2017-06-16T09:18:33.693Z,24.40
2017-06-16T09:20:59.975Z,24.30
2017-06-16T09:23:26.243Z,25.70
2017-06-16T09:25:52.556Z,27.80
2017-06-16T09:28:18.823Z,29.90
2017-06-16T09:30:45.843Z,33.90
2017-06-16T09:33:12.135Z,33.80
2017-06-16T09:35:38.413Z,35.40
2017-06-16T09:38:04.666Z,36.50
2017-06-16T09:40:30.954Z,37.60
2017-06-16T09:42:57.247Z,38.50
2017-06-16T09:45:23.531Z,38.10
2017-06-16T09:47:49.799Z,37.10
2017-06-16T09:50:16.119Z,36.80
2017-06-16T09:52:42.395Z,37.10
2017-06-16T09:55:08.699Z,38.20
2017-06-16T09:57:35.070Z,38.80
2017-06-16T10:00:01.343Z,39.00
2017-06-16T10:02:27.623Z,39.70
2017-06-16T10:04:53.919Z,40.20
2017-06-16T10:07:20.230Z,40.90
2017-06-16T10:09:46.522Z,41.20
2017-06-16T10:12:12.820Z,41.50
2017-06-16T10:14:39.094Z,40.40
2017-06-16T10:17:05.635Z,39.20
2017-06-16T10:19:31.926Z,38.10
2017-06-16T10:21:58.191Z,36.60
2017-06-16T10:24:24.489Z,35.30
2017-06-16T10:26:50.767Z,33.90
2017-06-16T10:29:17.027Z,32.60
2017-06-16T10:31:44.323Z,31.40
2017-06-16T10:34:11.340Z,28.70
2017-06-16T10:36:37.590Z,28.70
2017-06-16T10:39:04.615Z,27.10
2017-06-16T10:41:30.934Z,27.10
2017-06-16T10:43:57.946Z,25.90
2017-06-16T10:46:24.215Z,25.90
2017-06-16T10:48:50.502Z,25.60
2017-06-16T10:51:17.494Z,25.50
2017-06-16T10:53:43.779Z,25.50
2017-06-16T10:56:10.065Z,25.50
2017-06-16T10:58:36.323Z,25.40
2017-06-16T11:03:38.554Z,25.60
2017-06-16T11:06:04.849Z,25.80
2017-06-16T11:08:31.099Z,25.80
2017-06-16T11:10:57.405Z,25.80
2017-06-16T11:13:23.707Z,25.80
2017-06-16T11:15:50.000Z,25.30
2017-06-16T11:18:16.431Z,25.10
2017-06-16T11:20:42.728Z,24.80
2017-06-16T11:23:09.092Z,24.70
2017-06-16T11:25:35.382Z,24.70
2017-06-16T11:28:01.676Z,24.90
2017-06-16T11:30:27.976Z,25.00
2017-06-16T11:32:54.283Z,24.70
2017-06-16T11:35:20.614Z,24.40
2017-06-16T11:37:47.610Z,23.80
2017-06-16T11:40:13.990Z,23.70
2017-06-16T11:42:40.317Z,23.80
2017-06-16T11:45:06.666Z,23.90
2017-06-16T11:47:33.000Z,23.90
2017-06-16T11:49:59.342Z,23.90
2017-06-16T11:52:25.763Z,23.90
2017-06-16T11:54:52.134Z,24.00
2017-06-16T11:57:18.434Z,24.20
2017-06-16T11:59:44.722Z,24.20
2017-06-16T12:02:11.022Z,24.10
2017-06-16T12:04:37.340Z,24.20
2017-06-16T12:07:03.663Z,24.30
2017-06-16T12:09:29.950Z,24.40
2017-06-16T12:11:56.234Z,24.60
2017-06-16T12:14:23.222Z,24.70
2017-06-16T12:16:49.507Z,24.70
2017-06-16T12:19:16.667Z,24.90
2017-06-16T12:21:43.019Z,25.00
2017-06-16T12:24:09.342Z,24.90
2017-06-16T12:26:36.380Z,25.80
2017-06-16T12:29:03.407Z,26.60
2017-06-16T12:31:29.698Z,26.60
2017-06-16T12:33:55.992Z,27.20
2017-06-16T12:36:22.271Z,28.50
2017-06-16T12:38:48.551Z,29.10
2017-06-16T12:41:14.827Z,29.90
2017-06-16T12:43:42.382Z,30.20
2017-06-16T12:46:08.682Z,29.90
2017-06-16T12:48:34.974Z,29.20
2017-06-16T12:51:01.691Z,28.60
2017-06-16T12:53:28.016Z,28.00
2017-06-16T12:55:54.311Z,28.70
2017-06-16T12:58:20.576Z,29.50
2017-06-16T13:00:46.863Z,29.60
2017-06-16T13:03:13.183Z,29.20
2017-06-16T13:05:39.441Z,28.60
2017-06-16T13:08:06.494Z,28.30
2017-06-16T13:10:33.536Z,28.00
2017-06-16T13:12:59.794Z,28.10
2017-06-16T13:15:26.094Z,27.90
2017-06-16T13:17:52.363Z,27.60
2017-06-16T13:20:18.634Z,27.30
2017-06-16T13:22:44.960Z,26.80
2017-06-16T13:25:11.258Z,26.50
2017-06-16T13:27:38.355Z,26.50
2017-06-16T13:30:04.627Z,26.50
2017-06-16T13:32:30.931Z,27.40
2017-06-16T13:34:57.210Z,28.70
2017-06-16T13:37:24.231Z,29.00
2017-06-16T13:39:50.514Z,29.00
2017-06-16T13:42:16.770Z,28.80
2017-06-16T13:44:43.074Z,28.80
2017-06-16T13:47:09.804Z,28.40
2017-06-16T13:49:36.067Z,28.10
2017-06-16T13:52:02.362Z,27.60
2017-06-16T13:54:28.642Z,27.10
2017-06-16T13:56:54.939Z,26.50
2017-06-16T13:59:21.214Z,26.00
2017-06-16T14:01:47.510Z,25.70
2017-06-16T14:04:14.507Z,25.80
2017-06-16T14:06:40.782Z,25.80
2017-06-16T14:09:07.072Z,25.90
2017-06-16T14:11:33.327Z,25.80
2017-06-16T14:13:59.710Z,25.40
2017-06-16T14:16:25.994Z,25.10
2017-06-16T14:18:52.246Z,24.70
2017-06-16T14:21:18.550Z,24.40
2017-06-16T14:23:44.853Z,24.20
2017-06-16T14:26:11.122Z,24.50
2017-06-16T14:28:37.402Z,25.80
2017-06-16T14:31:03.723Z,27.00
2017-06-16T14:33:29.986Z,28.10
2017-06-16T14:35:57.016Z,28.50
2017-06-16T14:38:23.390Z,28.50
2017-06-16T14:40:49.718Z,28.10
2017-06-16T14:43:16.007Z,27.50
2017-06-16T14:45:42.311Z,27.10
2017-06-16T14:48:08.610Z,26.60
2017-06-16T14:50:34.899Z,26.10
2017-06-16T14:53:01.183Z,25.90
2017-06-16T14:55:27.482Z,26.10
2017-06-16T14:57:53.791Z,26.70
2017-06-16T15:00:20.070Z,27.10
2017-06-16T15:02:47.090Z,27.50
2017-06-16T15:05:13.451Z,27.50
2017-06-16T15:07:39.814Z,27.60
2017-06-16T15:10:06.077Z,27.70
2017-06-16T15:12:32.363Z,27.90
2017-06-16T15:14:58.673Z,27.90
2017-06-16T15:17:25.667Z,27.30
2017-06-16T15:19:51.938Z,27.30
2017-06-16T15:22:24.378Z,26.70
2017-06-16T15:24:51.426Z,25.90
2017-06-16T15:27:17.707Z,25.80
2017-06-16T15:29:44.178Z,25.50
2017-06-16T15:32:10.447Z,25.30
2017-06-16T15:34:37.530Z,24.90
2017-06-16T15:37:03.824Z,24.90
2017-06-16T15:39:30.086Z,24.90
2017-06-16T15:41:56.371Z,24.90
2017-06-16T15:44:22.646Z,25.10
2017-06-16T15:46:49.658Z,25.40
2017-06-16T15:49:16.683Z,25.50
2017-06-16T15:51:43.542Z,25.40
2017-06-16T15:54:09.958Z,25.50
2017-06-16T15:56:37.191Z,25.50
2017-06-16T15:59:04.220Z,25.70
2017-06-16T16:01:31.240Z,25.60
2017-06-16T16:03:57.646Z,25.50
2017-06-16T16:06:24.043Z,25.40
2017-06-16T16:08:51.106Z,25.00
2017-06-16T16:11:17.421Z,24.90
2017-06-16T16:13:43.986Z,24.80
2017-06-16T16:16:10.256Z,24.70
2017-06-16T16:18:36.542Z,24.50
2017-06-16T16:21:02.821Z,24.30
2017-06-16T16:23:29.111Z,24.20
2017-06-16T16:25:55.399Z,24.10
2017-06-16T16:28:21.683Z,24.00
2017-06-16T16:30:47.946Z,24.00
2017-06-16T16:33:14.338Z,23.80
2017-06-16T16:35:40.615Z,23.70
2017-06-16T16:38:06.874Z,23.50
2017-06-16T16:40:33.907Z,23.30
2017-06-16T16:43:01.767Z,23.30
2017-06-16T16:45:28.035Z,23.20
2017-06-16T16:47:54.310Z,23.10
2017-06-16T16:50:21.442Z,22.80
2017-06-16T16:52:47.694Z,22.80
2017-06-16T16:55:13.998Z,22.70
2017-06-16T16:57:40.286Z,22.60
2017-06-16T17:00:06.566Z,22.50
2017-06-16T17:02:32.843Z,22.40
2017-06-16T17:04:59.122Z,22.30
2017-06-16T17:07:26.231Z,22.10
2017-06-16T17:09:52.519Z,22.10
2017-06-16T17:12:18.925Z,22.00
2017-06-16T17:14:45.319Z,21.90
2017-06-16T17:17:11.627Z,21.80
2017-06-16T17:19:37.910Z,21.70
2017-06-16T17:22:04.167Z,21.60
2017-06-16T17:24:30.511Z,21.60
2017-06-16T17:26:56.794Z,21.60
2017-06-16T17:29:23.099Z,21.50
2017-06-16T17:31:49.370Z,21.50
2017-06-16T17:34:15.639Z,21.40
2017-06-16T17:36:41.923Z,21.30
2017-06-16T17:39:08.310Z,21.30
2017-06-16T17:41:35.411Z,21.20
2017-06-16T17:44:01.816Z,21.20
2017-06-16T17:46:28.119Z,21.20
2017-06-16T17:48:55.149Z,21.10
2017-06-16T17:51:22.175Z,21.10
2017-06-16T17:53:48.462Z,21.00
2017-06-16T17:56:14.750Z,21.00
2017-06-16T17:58:41.027Z,21.00
2017-06-16T18:01:07.383Z,20.90
2017-06-16T18:03:33.678Z,20.90
2017-06-16T18:06:00.018Z,20.80
2017-06-16T18:08:26.286Z,20.80
2017-06-16T18:10:52.578Z,20.80
2017-06-16T18:13:20.736Z,20.80
2017-06-16T18:15:47.999Z,20.70
2017-06-16T18:18:14.294Z,20.70
2017-06-16T18:20:40.557Z,20.60
2017-06-16T18:23:06.859Z,20.60
2017-06-16T18:25:33.207Z,20.60
2017-06-16T18:27:59.568Z,20.50
2017-06-16T18:30:25.847Z,20.30
2017-06-16T18:32:52.159Z,20.30
2017-06-16T18:35:19.179Z,20.20
2017-06-16T18:37:45.432Z,20.10
2017-06-16T18:40:11.723Z,20.20
2017-06-16T18:42:38.077Z,20.10
2017-06-16T18:45:04.366Z,20.00
2017-06-16T18:47:31.478Z,19.90
2017-06-16T18:49:57.812Z,19.90
2017-06-16T18:52:24.823Z,19.80
2017-06-16T18:54:52.056Z,19.80
2017-06-16T18:57:18.483Z,19.80
2017-06-16T18:59:44.763Z,19.80
2017-06-16T19:02:11.059Z,19.70
2017-06-16T19:04:37.632Z,19.70
2017-06-16T19:07:04.260Z,19.60
2017-06-16T19:09:30.953Z,19.60
2017-06-16T19:11:57.640Z,19.50
2017-06-16T19:14:24.741Z,19.40
2017-06-16T19:16:51.220Z,19.30
2017-06-16T19:19:18.395Z,19.30
2017-06-16T19:21:44.831Z,19.20
2017-06-16T19:24:11.309Z,19.30
2017-06-16T19:26:37.921Z,19.20
2017-06-16T19:29:04.460Z,19.20
2017-06-16T19:31:31.141Z,19.10
2017-06-16T19:33:57.634Z,19.10
2017-06-16T19:36:24.500Z,19.00
2017-06-16T19:38:51.314Z,18.90
2017-06-16T19:41:18.107Z,18.90
2017-06-16T19:43:44.841Z,18.80
2017-06-16T19:46:11.459Z,18.80
2017-06-16T19:48:37.907Z,18.70
2017-06-16T19:51:04.304Z,18.70
2017-06-16T19:53:30.937Z,18.70
2017-06-16T19:55:57.472Z,18.60
2017-06-16T19:58:24.044Z,18.50
2017-06-16T20:00:50.498Z,18.50
2017-06-16T20:03:16.916Z,18.50
2017-06-16T20:05:43.344Z,18.40
2017-06-16T20:08:10.004Z,18.40
2017-06-16T20:10:36.535Z,18.30
2017-06-16T20:13:03.125Z,18.30
2017-06-16T20:15:29.977Z,18.30
2017-06-16T20:17:56.744Z,18.30
2017-06-16T20:20:23.435Z,18.20
2017-06-16T20:22:50.580Z,18.20
2017-06-16T20:25:17.735Z,18.10
2017-06-16T20:27:45.297Z,18.00
2017-06-16T20:30:12.633Z,18.00
2017-06-16T20:32:39.727Z,17.90
2017-06-16T20:35:06.490Z,17.90
2017-06-16T20:37:33.849Z,17.90
2017-06-16T20:40:01.270Z,17.80
2017-06-16T20:42:28.334Z,17.70
2017-06-16T20:44:55.063Z,17.70
2017-06-16T20:47:21.902Z,17.70
2017-06-16T20:49:48.947Z,17.60
2017-06-16T20:52:15.659Z,17.60
2017-06-16T20:54:42.323Z,17.60
2017-06-16T20:57:08.892Z,17.50
2017-06-16T20:59:35.324Z,17.50
2017-06-16T21:02:01.762Z,17.50
2017-06-16T21:04:28.256Z,17.40
2017-06-16T21:06:54.784Z,17.40
2017-06-16T21:09:21.378Z,17.30
2017-06-16T21:11:47.833Z,17.30
2017-06-16T21:14:14.261Z,17.30
2017-06-16T21:16:40.696Z,17.30
2017-06-16T21:19:07.168Z,17.20
2017-06-16T21:21:33.582Z,17.20
2017-06-16T21:24:00.024Z,17.20
2017-06-16T21:26:26.395Z,17.20
2017-06-16T21:28:52.849Z,17.20
2017-06-16T21:31:19.290Z,17.10
2017-06-16T21:33:45.692Z,17.10
2017-06-16T21:36:12.059Z,17.00
2017-06-16T21:38:38.607Z,16.90
2017-06-16T21:41:05.012Z,16.90
2017-06-16T21:43:31.420Z,16.90
2017-06-16T21:45:57.796Z,16.80
2017-06-16T21:48:24.164Z,16.80
2017-06-16T21:50:50.637Z,16.70
2017-06-16T21:53:17.039Z,16.70
2017-06-16T21:55:43.411Z,16.70
2017-06-16T21:58:09.838Z,16.60
2017-06-16T22:00:36.204Z,16.60
2017-06-16T22:03:02.628Z,16.60
2017-06-16T22:05:28.999Z,16.60
2017-06-16T22:07:55.380Z,16.60
2017-06-16T22:10:21.844Z,16.50
2017-06-16T22:12:48.324Z,16.50
2017-06-16T22:15:14.756Z,16.50
2017-06-16T22:17:41.224Z,16.40
2017-06-16T22:20:07.608Z,16.40
2017-06-16T22:22:34.000Z,16.40
2017-06-16T22:25:01.101Z,16.30
2017-06-16T22:27:28.023Z,16.30
2017-06-16T22:29:54.428Z,16.30
2017-06-16T22:32:21.380Z,16.30
2017-06-16T22:34:48.406Z,16.30
2017-06-16T22:37:15.088Z,16.20
2017-06-16T22:39:41.659Z,16.10
2017-06-16T22:42:08.052Z,16.20
2017-06-16T22:44:34.487Z,16.10
2017-06-16T22:47:00.921Z,16.10
2017-06-16T22:49:27.271Z,16.10
2017-06-16T22:51:53.648Z,16.00
2017-06-16T22:54:20.107Z,16.00
2017-06-16T22:56:46.469Z,16.00
2017-06-16T22:59:12.876Z,15.90
2017-06-16T23:01:39.303Z,15.80
2017-06-16T23:04:05.679Z,15.70
2017-06-16T23:06:33.116Z,15.70
2017-06-16T23:08:59.620Z,15.70
2017-06-16T23:11:26.035Z,15.60
2017-06-16T23:13:52.444Z,15.60
2017-06-16T23:16:18.855Z,15.50
2017-06-16T23:18:45.261Z,15.50
2017-06-16T23:21:11.659Z,15.50
2017-06-16T23:23:38.083Z,15.50
2017-06-16T23:26:04.499Z,15.40
2017-06-16T23:28:30.963Z,15.40
2017-06-16T23:30:58.142Z,15.30
2017-06-16T23:33:25.275Z,15.30
2017-06-16T23:35:52.387Z,15.40
2017-06-16T23:38:18.820Z,15.40
2017-06-16T23:40:45.200Z,15.40
2017-06-16T23:43:11.600Z,15.40
2017-06-16T23:45:38.045Z,15.30
2017-06-16T23:48:04.463Z,15.30
2017-06-16T23:50:30.812Z,15.30
2017-06-16T23:52:57.231Z,15.30
2017-06-16T23:55:23.584Z,15.40
2017-06-16T23:57:49.963Z,15.50
